Terminal Aerodrome Forecast
Issued by NWS Rapid City, SD

Home | Current Version | Previous Version | Text Only | Print | Product List | Glossary On
Versions: 1 2 3 4 5 6 7 8 9 10 11 12 13 14 15 16 17 18 19 20
882
FTUS43 KUNR 181834 AAA
TAFRAP
TAF AMD
KRAP 181834Z 1819/1918 35035G45KT 1SM -SN BLSN BKN020 OVC050
     FM182200 35018G28KT 1SM -SN OVC015
     FM190100 01017G27KT 3/4SM -SN BLSN VV005
     FM191200 01015KT 1SM -SN BLSN OVC009=

USA.gov is the U.S. government's official web portal to all federal, state and local government web resources and services.